createdAt,value
2023-04-21T00:00:14.852Z,13.71
2023-04-21T00:02:43.231Z,13.61
2023-04-21T00:05:12.646Z,13.63
2023-04-21T00:07:41.692Z,13.50
2023-04-21T00:10:10.653Z,13.46
2023-04-21T00:12:38.922Z,13.46
2023-04-21T00:15:07.134Z,13.44
2023-04-21T00:17:34.912Z,13.46
2023-04-21T00:20:02.367Z,13.53
2023-04-21T00:22:30.157Z,13.66
2023-04-21T00:24:58.408Z,13.57
2023-04-21T00:27:25.775Z,13.62
2023-04-21T00:29:53.231Z,13.56
2023-04-21T00:32:20.756Z,13.66
2023-04-21T00:34:48.265Z,13.61
2023-04-21T00:37:15.682Z,13.58
2023-04-21T00:39:43.401Z,13.51
2023-04-21T00:42:12.724Z,13.50
2023-04-21T00:44:40.446Z,13.30
2023-04-21T00:47:07.948Z,13.21
2023-04-21T00:49:35.665Z,13.25
2023-04-21T00:52:05.663Z,13.10
2023-04-21T00:54:36.012Z,13.19
2023-04-21T00:57:04.525Z,13.20
2023-04-21T00:59:32.019Z,13.19
2023-04-21T01:01:59.743Z,13.10
2023-04-21T01:04:28.107Z,13.25
2023-04-21T01:06:55.684Z,13.15
2023-04-21T01:09:23.193Z,13.16
2023-04-21T01:12:09.254Z,13.27
2023-04-21T01:14:38.935Z,13.22
2023-04-21T01:17:08.085Z,13.09
2023-04-21T01:19:40.466Z,13.08
2023-04-21T01:22:12.480Z,13.08
2023-04-21T01:24:44.845Z,13.17
2023-04-21T01:27:21.260Z,13.27
2023-04-21T01:29:51.642Z,13.40
2023-04-21T01:32:23.925Z,13.53
2023-04-21T01:34:52.528Z,13.46
2023-04-21T01:37:24.765Z,13.42
2023-04-21T01:39:54.803Z,13.43
2023-04-21T01:42:24.840Z,13.53
2023-04-21T01:44:53.870Z,13.49
2023-04-21T01:47:22.316Z,13.48
2023-04-21T01:49:49.827Z,13.35
2023-04-21T01:52:17.489Z,13.36
2023-04-21T01:54:44.907Z,13.30
2023-04-21T01:57:12.477Z,13.32
2023-04-21T01:59:40.077Z,13.35
2023-04-21T02:02:07.811Z,13.34
2023-04-21T02:04:35.764Z,13.36
2023-04-21T02:07:03.408Z,13.41
2023-04-21T02:09:31.710Z,13.27
2023-04-21T02:11:59.438Z,13.12
2023-04-21T02:14:26.846Z,12.98
2023-04-21T02:16:56.271Z,12.84
2023-04-21T02:19:24.644Z,12.83
2023-04-21T02:21:52.019Z,12.79
2023-04-21T02:24:19.497Z,12.76
2023-04-21T02:26:46.848Z,12.91
2023-04-21T02:29:14.243Z,12.77
2023-04-21T02:31:56.644Z,12.67
2023-04-21T02:34:28.538Z,12.78
2023-04-21T02:36:56.201Z,12.78
2023-04-21T02:39:23.560Z,12.81
2023-04-21T02:41:51.035Z,12.86
2023-04-21T02:44:18.483Z,12.84
2023-04-21T02:46:45.962Z,12.89
2023-04-21T02:49:13.644Z,12.92
2023-04-21T02:51:41.135Z,12.90
2023-04-21T02:54:08.585Z,12.93
2023-04-21T02:56:35.961Z,12.96
2023-04-21T02:59:03.452Z,12.79
2023-04-21T03:01:30.875Z,12.86
2023-04-21T03:03:58.263Z,12.94
2023-04-21T03:06:25.690Z,12.99
2023-04-21T03:08:53.041Z,13.00
2023-04-21T03:11:20.404Z,13.06
2023-04-21T03:13:48.532Z,12.94
2023-04-21T03:16:16.082Z,12.98
2023-04-21T03:18:43.437Z,12.98
2023-04-21T03:21:11.061Z,12.98
2023-04-21T03:23:38.449Z,12.95
2023-04-21T03:26:09.042Z,12.87
2023-04-21T03:28:36.499Z,13.02
2023-04-21T03:31:03.982Z,12.87
2023-04-21T03:33:31.378Z,12.86
2023-04-21T03:35:58.861Z,12.89
2023-04-21T03:38:29.101Z,12.98
2023-04-21T03:40:56.492Z,12.98
2023-04-21T03:43:23.963Z,12.98
2023-04-21T03:45:51.365Z,13.07
2023-04-21T03:48:18.758Z,13.00
2023-04-21T03:50:46.149Z,12.91
2023-04-21T03:53:13.569Z,12.84
2023-04-21T03:55:41.328Z,12.95
2023-04-21T03:58:08.725Z,12.89
2023-04-21T04:00:36.204Z,12.93
2023-04-21T04:03:04.053Z,13.03
2023-04-21T04:05:32.223Z,13.03
2023-04-21T04:07:59.588Z,13.13
2023-04-21T04:10:27.021Z,12.99
2023-04-21T04:12:55.425Z,12.96
2023-04-21T04:15:22.914Z,12.88
2023-04-21T04:17:50.976Z,12.98
2023-04-21T04:20:18.548Z,12.97
2023-04-21T04:22:46.024Z,12.89
2023-04-21T04:25:15.150Z,12.89
2023-04-21T04:27:44.515Z,12.91
2023-04-21T04:30:13.322Z,12.93
2023-04-21T04:32:41.764Z,13.00
2023-04-21T04:35:10.944Z,13.12
2023-04-21T04:37:39.504Z,13.09
2023-04-21T04:40:10.366Z,13.09
2023-04-21T04:42:39.687Z,13.05
2023-04-21T04:45:08.713Z,12.97
2023-04-21T04:47:36.169Z,13.00
2023-04-21T04:50:04.802Z,13.03
2023-04-21T04:52:32.614Z,13.01
2023-04-21T04:54:59.961Z,13.13
2023-04-21T04:57:27.378Z,13.13
2023-04-21T04:59:56.492Z,13.11
2023-04-21T05:02:24.558Z,13.21
2023-04-21T05:04:52.280Z,13.26
2023-04-21T05:07:19.845Z,13.26
2023-04-21T05:09:47.341Z,13.17
2023-04-21T05:12:14.709Z,13.24
2023-04-21T05:14:42.629Z,13.18
2023-04-21T05:17:09.996Z,13.19
2023-04-21T05:19:38.106Z,13.15
2023-04-21T05:22:08.572Z,12.96
2023-04-21T05:24:36.181Z,13.08
2023-04-21T05:27:03.803Z,13.17
2023-04-21T05:29:31.217Z,13.26
2023-04-21T05:31:58.718Z,13.46
2023-04-21T05:34:26.245Z,13.41
2023-04-21T05:36:53.629Z,13.57
2023-04-21T05:39:21.092Z,13.56
2023-04-21T05:41:48.588Z,13.67
2023-04-21T05:44:19.154Z,13.63
2023-04-21T05:46:46.869Z,13.25
2023-04-21T05:49:14.758Z,13.21
2023-04-21T05:51:42.123Z,13.22
2023-04-21T05:54:09.540Z,13.29
2023-04-21T05:56:37.079Z,13.44
2023-04-21T05:59:04.526Z,13.61
2023-04-21T06:01:31.969Z,13.69
2023-04-21T06:03:59.508Z,13.63
2023-04-21T06:06:28.160Z,13.62
2023-04-21T06:08:55.654Z,13.69
2023-04-21T06:11:23.948Z,13.70
2023-04-21T06:13:53.796Z,13.76
2023-04-21T06:16:21.281Z,13.68
2023-04-21T06:18:48.727Z,13.84
2023-04-21T06:21:16.106Z,13.83
2023-04-21T06:23:43.618Z,13.92
2023-04-21T06:26:11.044Z,13.84
2023-04-21T06:28:39.383Z,13.87
2023-04-21T06:31:08.909Z,13.83
2023-04-21T06:33:37.027Z,13.97
2023-04-21T06:36:04.785Z,14.02
2023-04-21T06:38:32.210Z,13.89
2023-04-21T06:40:59.664Z,13.95
2023-04-21T06:43:27.087Z,14.05
2023-04-21T06:45:54.485Z,13.74
2023-04-21T06:48:22.024Z,14.04
2023-04-21T06:50:49.546Z,14.16
2023-04-21T06:53:18.295Z,14.05
2023-04-21T06:55:45.932Z,13.90
2023-04-21T06:58:13.659Z,14.18
2023-04-21T07:00:41.354Z,14.00
2023-04-21T07:03:08.968Z,14.01
2023-04-21T07:05:36.951Z,13.94
2023-04-21T07:08:04.548Z,13.88
2023-04-21T07:10:32.252Z,13.68
2023-04-21T07:12:59.704Z,13.58
2023-04-21T07:15:27.295Z,13.61
2023-04-21T07:17:55.027Z,13.70
2023-04-21T07:20:22.548Z,13.67
2023-04-21T07:22:50.031Z,13.70
2023-04-21T07:25:17.513Z,13.73
2023-04-21T07:27:44.926Z,13.50
2023-04-21T07:30:12.762Z,13.54
2023-04-21T07:32:40.292Z,13.41
2023-04-21T07:35:08.090Z,13.64
2023-04-21T07:37:35.698Z,13.60
2023-04-21T07:40:04.127Z,13.61
2023-04-21T07:42:31.764Z,13.77
2023-04-21T07:45:01.230Z,13.67
2023-04-21T07:47:29.295Z,13.71
2023-04-21T07:49:56.781Z,13.71
2023-04-21T07:52:24.410Z,13.73
2023-04-21T07:54:52.001Z,13.72
2023-04-21T07:57:19.467Z,13.55
2023-04-21T07:59:47.083Z,13.62
2023-04-21T08:02:14.605Z,13.64
2023-04-21T08:04:42.158Z,13.67
2023-04-21T08:07:10.240Z,13.61
2023-04-21T08:09:38.005Z,13.72
2023-04-21T08:12:05.513Z,13.75
2023-04-21T08:14:32.951Z,13.75
2023-04-21T08:17:00.656Z,13.75
2023-04-21T08:19:28.126Z,13.57
2023-04-21T08:21:55.564Z,13.69
2023-04-21T08:24:23.410Z,13.50
2023-04-21T08:26:51.100Z,13.72
2023-04-21T08:29:18.498Z,13.58
2023-04-21T08:31:46.634Z,13.69
2023-04-21T08:34:14.409Z,13.75
2023-04-21T08:36:42.931Z,13.66
2023-04-21T08:39:10.598Z,13.80
2023-04-21T08:41:41.319Z,13.98
2023-04-21T08:44:11.780Z,13.95
2023-04-21T08:46:40.153Z,13.96
2023-04-21T08:49:10.106Z,13.87
2023-04-21T08:51:37.972Z,14.21
2023-04-21T08:54:06.143Z,14.03
2023-04-21T08:56:34.027Z,14.02
2023-04-21T08:59:01.543Z,13.99
2023-04-21T09:01:29.238Z,13.95
2023-04-21T09:04:17.364Z,13.70
2023-04-21T09:06:46.312Z,13.74
2023-04-21T09:09:13.983Z,13.92
2023-04-21T09:11:41.397Z,13.76
2023-04-21T09:14:09.879Z,13.75
2023-04-21T09:16:37.310Z,13.83
2023-04-21T09:19:15.078Z,13.84
2023-04-21T09:21:44.435Z,13.79
2023-04-21T09:24:13.239Z,13.82
2023-04-21T09:26:42.734Z,13.69
2023-04-21T09:29:10.162Z,13.77
2023-04-21T09:31:37.865Z,13.87
2023-04-21T09:34:18.888Z,14.00
2023-04-21T09:36:47.603Z,13.87
2023-04-21T09:39:34.265Z,13.83
2023-04-21T09:42:02.591Z,13.80
2023-04-21T09:44:39.299Z,13.89
2023-04-21T09:47:12.397Z,13.99
2023-04-21T09:49:44.883Z,13.85
2023-04-21T09:52:18.289Z,14.01
2023-04-21T09:54:51.753Z,13.86
2023-04-21T09:57:23.525Z,13.84
2023-04-21T09:59:57.229Z,13.88
2023-04-21T10:02:27.019Z,13.94
2023-04-21T10:04:54.903Z,14.04
2023-04-21T10:07:22.725Z,13.90
2023-04-21T10:09:56.192Z,13.89
2023-04-21T10:12:26.069Z,13.97
2023-04-21T10:14:57.380Z,14.08
2023-04-21T10:17:26.764Z,14.20
2023-04-21T10:19:58.915Z,13.96
2023-04-21T10:22:31.421Z,13.96
2023-04-21T10:25:00.920Z,14.16
2023-04-21T10:27:36.673Z,14.16
2023-04-21T10:30:23.549Z,14.15
2023-04-21T10:33:03.530Z,14.23
2023-04-21T10:36:03.250Z,14.37
2023-04-21T10:38:35.958Z,14.46
2023-04-21T10:41:31.409Z,14.68
2023-04-21T10:44:10.464Z,14.75
2023-04-21T10:46:45.479Z,14.89
2023-04-21T10:49:21.352Z,15.08
2023-04-21T10:51:58.181Z,15.10
2023-04-21T10:54:27.023Z,15.13
2023-04-21T10:56:59.402Z,15.39
2023-04-21T10:59:27.631Z,15.64
2023-04-21T11:01:55.229Z,15.68
2023-04-21T11:04:23.864Z,15.78
2023-04-21T11:07:26.056Z,15.83
2023-04-21T11:10:06.976Z,15.85
2023-04-21T11:12:39.157Z,15.76
2023-04-21T11:15:09.055Z,15.78
2023-04-21T11:17:43.566Z,15.90
2023-04-21T11:20:11.437Z,15.76
2023-04-21T11:22:39.093Z,15.85
2023-04-21T11:25:16.461Z,15.86
2023-04-21T11:27:56.523Z,15.65
2023-04-21T11:30:34.735Z,15.99
2023-04-21T11:33:02.424Z,15.97
2023-04-21T11:35:31.365Z,16.11
2023-04-21T11:37:58.795Z,16.07
2023-04-21T11:40:26.266Z,16.23
2023-04-21T11:42:54.674Z,16.40
2023-04-21T11:45:22.822Z,16.53
2023-04-21T11:47:51.185Z,16.60
2023-04-21T11:50:34.925Z,16.47
2023-04-21T11:53:02.887Z,16.39
2023-04-21T11:55:30.415Z,16.39
2023-04-21T11:57:57.943Z,16.35
2023-04-21T12:00:31.526Z,16.09
2023-04-21T12:02:59.236Z,16.16
2023-04-21T12:05:36.167Z,16.30
2023-04-21T12:08:06.510Z,16.36
2023-04-21T12:10:34.103Z,15.99
2023-04-21T12:13:02.032Z,16.09
2023-04-21T12:15:31.348Z,16.07
2023-04-21T12:17:58.806Z,15.76
2023-04-21T12:20:29.314Z,15.76
2023-04-21T12:22:56.831Z,15.81
2023-04-21T12:25:25.248Z,16.00
2023-04-21T12:27:54.375Z,15.92
2023-04-21T12:30:22.071Z,15.96
2023-04-21T12:32:49.801Z,15.92
2023-04-21T12:35:17.280Z,15.90
2023-04-21T12:37:45.169Z,15.71
2023-04-21T12:40:12.619Z,15.75
2023-04-21T12:42:40.149Z,15.99
2023-04-21T12:45:08.046Z,16.03
2023-04-21T12:47:37.719Z,15.97
2023-04-21T12:50:05.720Z,15.66
2023-04-21T12:52:33.438Z,15.80
2023-04-21T12:55:00.840Z,15.87
2023-04-21T12:57:28.740Z,15.79
2023-04-21T12:59:56.120Z,15.87
2023-04-21T13:02:23.845Z,16.22
2023-04-21T13:04:51.386Z,16.23
2023-04-21T13:07:21.437Z,16.24
2023-04-21T13:09:48.816Z,16.13
2023-04-21T13:12:17.150Z,16.05
2023-04-21T13:14:44.535Z,16.25
2023-04-21T13:17:12.637Z,16.29
2023-04-21T13:19:40.221Z,16.58
2023-04-21T13:22:07.803Z,16.85
2023-04-21T13:24:35.307Z,16.93
2023-04-21T13:27:02.818Z,17.51
2023-04-21T13:29:34.029Z,17.69
2023-04-21T13:32:02.867Z,18.35
2023-04-21T13:34:32.094Z,18.52
2023-04-21T13:37:02.029Z,18.37
2023-04-21T13:39:29.717Z,18.25
2023-04-21T13:41:57.338Z,18.05
2023-04-21T13:44:24.792Z,17.80
2023-04-21T13:46:53.973Z,18.00
2023-04-21T13:49:21.534Z,17.83
2023-04-21T13:51:48.903Z,17.79
2023-04-21T13:54:16.570Z,17.44
2023-04-21T13:56:44.024Z,17.49
2023-04-21T13:59:11.569Z,16.96
2023-04-21T14:01:38.941Z,16.81
2023-04-21T14:04:07.072Z,16.93
2023-04-21T14:06:34.603Z,16.94
2023-04-21T14:09:02.093Z,16.83
2023-04-21T14:11:29.617Z,16.50
2023-04-21T14:14:09.027Z,16.53
2023-04-21T14:16:38.177Z,16.41
2023-04-21T14:19:06.258Z,16.33
2023-04-21T14:21:34.864Z,16.21
2023-04-21T14:24:02.479Z,15.98
2023-04-21T14:26:30.210Z,15.86
2023-04-21T14:28:57.737Z,15.98
2023-04-21T14:31:25.242Z,15.76
2023-04-21T14:33:52.626Z,15.65
2023-04-21T14:36:20.662Z,15.48
2023-04-21T14:38:48.257Z,15.18
2023-04-21T14:41:15.750Z,15.05
2023-04-21T14:43:43.120Z,15.14
2023-04-21T14:46:10.801Z,15.08
2023-04-21T14:48:38.598Z,15.10
2023-04-21T14:51:09.449Z,14.92
2023-04-21T14:53:36.833Z,15.09
2023-04-21T14:56:04.400Z,14.94
2023-04-21T14:58:31.907Z,15.05
2023-04-21T15:00:59.440Z,14.86
2023-04-21T15:03:27.028Z,14.99
2023-04-21T15:05:54.627Z,14.80
2023-04-21T15:08:21.996Z,14.91
2023-04-21T15:10:49.553Z,14.95
2023-04-21T15:13:17.465Z,14.89
2023-04-21T15:15:44.896Z,14.94
2023-04-21T15:18:12.384Z,14.93
2023-04-21T15:20:45.194Z,14.97
2023-04-21T15:23:13.635Z,14.92
2023-04-21T15:25:41.676Z,14.93
2023-04-21T15:28:09.571Z,15.05
2023-04-21T15:30:37.373Z,14.99
2023-04-21T15:33:04.988Z,14.95
2023-04-21T15:35:32.428Z,14.90
2023-04-21T15:38:00.399Z,14.86
2023-04-21T15:40:27.827Z,14.73
2023-04-21T15:42:55.322Z,14.55
2023-04-21T15:45:22.829Z,14.61
2023-04-21T15:47:50.440Z,14.57
2023-04-21T15:50:18.109Z,14.50
2023-04-21T15:52:45.522Z,14.51
2023-04-21T15:55:13.278Z,14.45
2023-04-21T15:57:40.730Z,14.31
2023-04-21T16:00:10.422Z,14.26
2023-04-21T16:02:38.867Z,14.22
2023-04-21T16:05:06.902Z,14.15
2023-04-21T16:07:34.832Z,14.08
2023-04-21T16:10:02.595Z,13.72
2023-04-21T16:12:30.298Z,13.76
2023-04-21T16:15:04.097Z,13.96
2023-04-21T16:17:37.317Z,13.87
2023-04-21T16:20:05.871Z,13.78
2023-04-21T16:22:34.732Z,13.68
2023-04-21T16:25:02.306Z,13.76
2023-04-21T16:27:30.002Z,13.77
2023-04-21T16:29:57.422Z,13.54
2023-04-21T16:32:24.883Z,13.61
2023-04-21T16:34:52.456Z,13.56
2023-04-21T16:37:19.964Z,13.59
2023-04-21T16:39:47.458Z,13.60
2023-04-21T16:42:14.906Z,13.57
2023-04-21T16:44:42.337Z,13.41
2023-04-21T16:47:09.829Z,13.52
2023-04-21T16:49:37.306Z,13.38
2023-04-21T16:52:04.781Z,13.41
2023-04-21T16:54:32.336Z,13.37
2023-04-21T16:56:59.894Z,13.26
2023-04-21T16:59:27.368Z,13.26
2023-04-21T17:01:54.932Z,13.22
2023-04-21T17:04:22.492Z,13.09
2023-04-21T17:06:49.991Z,13.21
2023-04-21T17:09:17.409Z,13.17
2023-04-21T17:11:46.084Z,13.12
2023-04-21T17:14:13.703Z,13.06
2023-04-21T17:16:41.328Z,13.04
2023-04-21T17:19:08.932Z,13.02
2023-04-21T17:21:36.439Z,13.10
2023-04-21T17:24:04.031Z,12.96
2023-04-21T17:26:31.658Z,13.01
2023-04-21T17:28:59.643Z,12.94
2023-04-21T17:31:30.560Z,12.90
2023-04-21T17:33:58.056Z,12.95
2023-04-21T17:36:31.687Z,12.93
2023-04-21T17:38:59.473Z,12.91
2023-04-21T17:41:27.806Z,12.97
2023-04-21T17:43:55.356Z,12.97
2023-04-21T17:46:25.227Z,12.92
2023-04-21T17:48:53.423Z,12.87
2023-04-21T17:51:20.856Z,12.96
2023-04-21T17:53:48.185Z,12.93
2023-04-21T17:56:15.963Z,12.85
2023-04-21T17:58:43.664Z,12.86
2023-04-21T18:01:11.174Z,12.71
2023-04-21T18:03:41.437Z,12.73
2023-04-21T18:06:11.418Z,12.77
2023-04-21T18:08:39.174Z,12.81
2023-04-21T18:11:06.701Z,12.93
2023-04-21T18:13:34.483Z,12.85
2023-04-21T18:16:02.303Z,12.68
2023-04-21T18:18:29.981Z,12.76
2023-04-21T18:20:57.765Z,12.78
2023-04-21T18:23:25.411Z,12.71
2023-04-21T18:25:52.861Z,12.61
2023-04-21T18:28:20.528Z,12.52
2023-04-21T18:30:48.069Z,12.74
2023-04-21T18:33:15.791Z,12.58
2023-04-21T18:35:43.541Z,12.45
2023-04-21T18:38:11.952Z,12.36
2023-04-21T18:40:40.983Z,12.56
2023-04-21T18:43:10.733Z,12.43
2023-04-21T18:45:38.973Z,12.48
2023-04-21T18:48:06.712Z,12.52
2023-04-21T18:50:39.854Z,12.59
2023-04-21T18:53:09.144Z,12.53
2023-04-21T18:55:37.475Z,12.43
2023-04-21T18:58:05.070Z,12.40
2023-04-21T19:00:32.923Z,12.55
2023-04-21T19:03:01.165Z,12.33
2023-04-21T19:05:31.095Z,12.49
2023-04-21T19:07:59.270Z,12.49
2023-04-21T19:10:27.633Z,12.36
2023-04-21T19:12:55.258Z,12.40
2023-04-21T19:15:22.963Z,12.19
2023-04-21T19:17:50.432Z,11.96
2023-04-21T19:20:18.485Z,12.36
2023-04-21T19:22:46.017Z,12.30
2023-04-21T19:25:13.438Z,12.30
2023-04-21T19:27:41.670Z,12.18
2023-04-21T19:30:09.620Z,12.29
2023-04-21T19:32:37.341Z,12.21
2023-04-21T19:35:05.104Z,12.39
2023-04-21T19:37:35.020Z,12.28
2023-04-21T19:40:03.500Z,12.23
2023-04-21T19:42:31.206Z,12.23
2023-04-21T19:44:58.560Z,12.11
2023-04-21T19:47:26.281Z,12.21
2023-04-21T19:49:54.026Z,12.23
2023-04-21T19:52:21.571Z,12.04
2023-04-21T19:54:48.953Z,12.05
2023-04-21T19:57:16.405Z,12.12
2023-04-21T19:59:43.752Z,12.17
2023-04-21T20:02:11.249Z,12.16
2023-04-21T20:04:39.391Z,12.19
2023-04-21T20:07:07.055Z,12.16
2023-04-21T20:09:34.814Z,12.00
2023-04-21T20:12:02.480Z,12.03
2023-04-21T20:14:29.913Z,12.00
2023-04-21T20:16:57.643Z,12.02
2023-04-21T20:19:27.116Z,11.94
2023-04-21T20:21:54.602Z,12.01
2023-04-21T20:24:22.674Z,11.95
2023-04-21T20:26:50.046Z,11.84
2023-04-21T20:29:17.439Z,11.81
2023-04-21T20:31:45.792Z,12.05
2023-04-21T20:34:13.232Z,11.85
2023-04-21T20:36:40.791Z,11.98
2023-04-21T20:39:08.544Z,11.85
2023-04-21T20:41:36.211Z,11.90
2023-04-21T20:44:03.879Z,11.80
2023-04-21T20:46:32.495Z,11.91
2023-04-21T20:48:59.909Z,11.79
2023-04-21T20:51:27.718Z,11.68
2023-04-21T20:53:55.112Z,11.75
2023-04-21T20:56:22.537Z,11.74
2023-04-21T20:58:49.999Z,11.77
2023-04-21T21:01:18.183Z,11.75
2023-04-21T21:03:46.247Z,11.81
2023-04-21T21:06:14.702Z,11.94
2023-04-21T21:08:42.146Z,11.85
2023-04-21T21:11:09.568Z,11.85
2023-04-21T21:13:38.348Z,11.51
2023-04-21T21:16:06.111Z,11.64
2023-04-21T21:18:34.782Z,11.73
2023-04-21T21:21:02.278Z,11.66
2023-04-21T21:23:29.826Z,11.57
2023-04-21T21:25:58.689Z,11.22
2023-04-21T21:28:26.656Z,11.43
2023-04-21T21:30:54.045Z,11.47
2023-04-21T21:33:22.710Z,11.28
2023-04-21T21:35:50.106Z,11.47
2023-04-21T21:38:17.782Z,11.47
2023-04-21T21:40:45.289Z,11.36
2023-04-21T21:43:12.765Z,11.43
2023-04-21T21:45:40.193Z,11.48
2023-04-21T21:48:08.053Z,11.39
2023-04-21T21:50:35.605Z,11.43
2023-04-21T21:53:02.988Z,11.39
2023-04-21T21:55:30.680Z,11.39
2023-04-21T21:58:01.824Z,11.24
2023-04-21T22:00:30.515Z,11.21
2023-04-21T22:02:59.104Z,11.12
2023-04-21T22:05:26.689Z,11.10
2023-04-21T22:07:57.120Z,11.01
2023-04-21T22:10:24.861Z,11.17
2023-04-21T22:12:54.129Z,11.09
2023-04-21T22:15:21.599Z,11.20
2023-04-21T22:17:49.042Z,11.23
2023-04-21T22:20:17.932Z,11.14
2023-04-21T22:22:45.283Z,11.10
2023-04-21T22:25:12.685Z,11.03
2023-04-21T22:27:40.503Z,11.06
2023-04-21T22:30:08.860Z,11.14
2023-04-21T22:32:36.731Z,10.89
2023-04-21T22:35:04.970Z,10.97
2023-04-21T22:37:32.482Z,10.93
2023-04-21T22:40:00.870Z,11.09
2023-04-21T22:42:28.353Z,10.76
2023-04-21T22:44:56.032Z,10.85
2023-04-21T22:47:23.872Z,10.96
2023-04-21T22:49:51.516Z,10.98
2023-04-21T22:52:18.989Z,10.97
2023-04-21T22:54:46.345Z,10.89
2023-04-21T22:57:14.281Z,10.81
2023-04-21T22:59:41.831Z,10.86
2023-04-21T23:02:09.319Z,11.00
2023-04-21T23:04:36.957Z,10.98
2023-04-21T23:07:05.205Z,11.05
2023-04-21T23:09:33.148Z,10.97
2023-04-21T23:12:01.534Z,10.95
2023-04-21T23:14:29.111Z,10.99
2023-04-21T23:16:56.583Z,10.96
2023-04-21T23:19:24.008Z,10.98
2023-04-21T23:21:51.411Z,11.03
2023-04-21T23:24:18.781Z,10.97
2023-04-21T23:26:46.174Z,10.99
2023-04-21T23:29:13.554Z,10.90
2023-04-21T23:31:41.251Z,10.92
2023-04-21T23:34:08.686Z,10.89
2023-04-21T23:36:36.674Z,10.98
2023-04-21T23:39:04.152Z,10.92
2023-04-21T23:41:31.617Z,10.90
2023-04-21T23:43:58.997Z,10.90
2023-04-21T23:46:26.451Z,10.95
2023-04-21T23:48:53.891Z,10.70
2023-04-21T23:51:22.631Z,10.63
2023-04-21T23:53:50.221Z,10.85
2023-04-21T23:56:17.665Z,10.92
2023-04-21T23:58:44.986Z,10.81
